createdAt,value
2018-07-31T00:02:08.885Z,6.83
2018-07-31T00:04:37.291Z,6.12
2018-07-31T00:07:05.658Z,6.50
2018-07-31T00:09:34.030Z,6.12
2018-07-31T00:12:02.470Z,6.42
2018-07-31T00:14:30.832Z,7.37
2018-07-31T00:16:58.941Z,6.70
2018-07-31T00:19:27.271Z,6.53
2018-07-31T00:21:55.667Z,5.28
2018-07-31T00:24:23.743Z,6.33
2018-07-31T00:26:52.130Z,6.70
2018-07-31T00:29:20.459Z,5.75
2018-07-31T00:31:48.836Z,7.47
2018-07-31T00:34:17.200Z,6.03
2018-07-31T00:36:45.560Z,6.22
2018-07-31T00:39:13.912Z,4.87
2018-07-31T00:41:42.534Z,5.83
2018-07-31T00:44:10.897Z,5.33
2018-07-31T00:46:39.256Z,6.87
2018-07-31T00:49:07.319Z,7.10
2018-07-31T00:51:35.734Z,6.75
2018-07-31T00:54:04.150Z,5.23
2018-07-31T00:56:32.555Z,5.30
2018-07-31T00:59:00.901Z,6.87
2018-07-31T01:01:29.255Z,5.23
2018-07-31T01:03:57.598Z,5.40
2018-07-31T01:06:26.622Z,5.77
2018-07-31T01:08:55.048Z,6.83
2018-07-31T01:11:23.596Z,10.60
2018-07-31T01:13:51.972Z,5.10
2018-07-31T01:16:20.360Z,5.67
2018-07-31T01:18:48.700Z,8.10
2018-07-31T01:21:16.841Z,6.87
2018-07-31T01:23:45.215Z,6.63
2018-07-31T01:26:13.536Z,5.63
2018-07-31T01:28:41.615Z,5.60
2018-07-31T01:31:09.673Z,5.33
2018-07-31T01:33:37.752Z,6.40
2018-07-31T01:36:05.803Z,6.07
2018-07-31T01:38:34.171Z,6.03
2018-07-31T01:41:02.509Z,5.80
2018-07-31T01:43:30.864Z,6.17
2018-07-31T01:45:59.015Z,7.43
2018-07-31T01:48:27.297Z,5.70
2018-07-31T01:50:55.610Z,6.87
2018-07-31T01:53:23.950Z,6.73
2018-07-31T01:55:52.265Z,8.67
2018-07-31T01:58:20.607Z,5.37
2018-07-31T02:00:48.938Z,5.80
2018-07-31T02:03:17.296Z,5.50
2018-07-31T02:05:45.616Z,5.77
2018-07-31T02:08:13.959Z,6.83
2018-07-31T02:10:42.276Z,6.00
2018-07-31T02:13:10.647Z,6.00
2018-07-31T02:15:38.960Z,8.33
2018-07-31T02:18:07.320Z,6.33
2018-07-31T02:20:35.670Z,7.83
2018-07-31T02:23:04.027Z,7.37
2018-07-31T02:25:32.094Z,6.70
2018-07-31T02:28:00.290Z,5.80
2018-07-31T02:30:28.520Z,6.80
2018-07-31T02:32:56.906Z,8.20
2018-07-31T02:35:25.228Z,5.80
2018-07-31T02:37:53.567Z,5.70
2018-07-31T02:40:21.922Z,6.50
2018-07-31T02:42:50.020Z,7.57
2018-07-31T02:45:18.338Z,7.10
2018-07-31T02:47:46.656Z,6.70
2018-07-31T02:50:15.016Z,6.70
2018-07-31T02:52:43.337Z,7.50
2018-07-31T02:55:12.115Z,7.57
2018-07-31T02:57:41.220Z,6.10
2018-07-31T03:00:10.547Z,6.43
2018-07-31T03:02:38.892Z,6.63
2018-07-31T03:05:09.052Z,7.37
2018-07-31T03:07:37.372Z,6.40
2018-07-31T03:10:06.938Z,6.93
2018-07-31T03:12:35.244Z,8.70
2018-07-31T03:15:03.641Z,7.67
2018-07-31T03:17:31.982Z,6.10
2018-07-31T03:20:00.325Z,6.43
2018-07-31T03:22:28.681Z,7.90
2018-07-31T03:24:57.035Z,6.60
2018-07-31T03:27:25.353Z,6.77
2018-07-31T03:29:53.716Z,6.77
2018-07-31T03:32:22.058Z,7.60
2018-07-31T03:34:50.475Z,7.13
2018-07-31T03:37:18.803Z,6.30
2018-07-31T03:39:47.176Z,7.77
2018-07-31T03:42:15.238Z,8.27
2018-07-31T03:44:43.600Z,8.37
2018-07-31T03:47:11.932Z,6.60
2018-07-31T03:49:40.290Z,8.73
2018-07-31T03:52:08.369Z,8.67
2018-07-31T03:54:36.730Z,7.57
2018-07-31T03:57:05.188Z,8.63
2018-07-31T03:59:33.572Z,8.10
2018-07-31T04:02:01.972Z,7.13
2018-07-31T04:04:30.084Z,8.40
2018-07-31T04:06:58.423Z,6.80
2018-07-31T04:09:26.514Z,7.17
2018-07-31T04:11:54.843Z,7.17
2018-07-31T04:14:23.207Z,7.60
2018-07-31T04:16:51.568Z,7.40
2018-07-31T04:19:19.936Z,7.60
2018-07-31T04:21:48.336Z,7.73
2018-07-31T04:24:16.859Z,9.73
2018-07-31T04:26:45.243Z,9.97
2018-07-31T04:29:13.560Z,8.63
2018-07-31T04:31:41.907Z,9.63
2018-07-31T04:34:10.234Z,8.10
2018-07-31T04:36:38.592Z,8.57
2018-07-31T04:39:09.000Z,8.90
2018-07-31T04:41:37.074Z,8.50
2018-07-31T04:44:05.371Z,7.60
2018-07-31T04:46:33.751Z,7.33
2018-07-31T04:49:02.096Z,10.40
2018-07-31T04:51:30.509Z,8.20
2018-07-31T04:53:59.288Z,9.50
2018-07-31T04:56:27.496Z,8.00
2018-07-31T04:58:56.883Z,9.70
2018-07-31T05:01:26.017Z,9.10
2018-07-31T05:03:54.511Z,9.87
2018-07-31T05:06:23.004Z,9.57
2018-07-31T05:08:51.413Z,8.93
2018-07-31T05:11:19.906Z,9.27
2018-07-31T05:13:48.492Z,10.23
2018-07-31T05:16:16.894Z,10.07
2018-07-31T05:18:47.174Z,10.93
2018-07-31T05:21:15.709Z,10.03
2018-07-31T05:23:44.103Z,8.97
2018-07-31T05:26:12.668Z,8.37
2018-07-31T05:28:41.157Z,10.87
2018-07-31T05:31:09.976Z,7.90
2018-07-31T05:33:38.877Z,9.03
2018-07-31T05:36:10.345Z,8.93
2018-07-31T05:38:38.777Z,11.20
2018-07-31T05:41:07.255Z,12.40
2018-07-31T05:43:35.570Z,10.47
2018-07-31T05:46:03.962Z,12.57
2018-07-31T05:48:32.261Z,9.20
2018-07-31T05:51:00.608Z,10.23
2018-07-31T05:53:28.928Z,9.27
2018-07-31T05:55:57.282Z,10.67
2018-07-31T05:58:25.336Z,10.43
2018-07-31T06:00:53.658Z,10.03
2018-07-31T06:03:22.003Z,11.00
2018-07-31T06:05:50.332Z,11.17
2018-07-31T06:08:19.503Z,10.97
2018-07-31T06:10:47.825Z,11.77
2018-07-31T06:13:16.185Z,12.00
2018-07-31T06:15:44.715Z,12.20
2018-07-31T06:18:13.080Z,12.03
2018-07-31T06:20:41.424Z,13.37
2018-07-31T06:23:09.759Z,10.43
2018-07-31T06:25:38.138Z,10.93
2018-07-31T06:28:06.483Z,10.63
2018-07-31T06:30:34.801Z,11.37
2018-07-31T06:33:02.875Z,11.20
2018-07-31T06:35:31.203Z,10.97
2018-07-31T06:37:59.575Z,15.97
2018-07-31T06:40:27.899Z,11.60
2018-07-31T06:42:56.259Z,12.87
2018-07-31T06:45:24.576Z,11.13
2018-07-31T06:47:52.963Z,11.37
2018-07-31T06:50:21.010Z,11.30
2018-07-31T06:52:49.348Z,9.97
2018-07-31T06:55:17.668Z,11.17
2018-07-31T06:57:46.045Z,11.17
2018-07-31T07:00:14.367Z,11.57
2018-07-31T07:02:42.707Z,10.67
2018-07-31T07:05:11.040Z,12.30
2018-07-31T07:07:39.395Z,9.33
2018-07-31T07:10:07.823Z,9.47
2018-07-31T07:12:36.185Z,7.47
2018-07-31T07:15:04.659Z,8.27
2018-07-31T07:17:33.046Z,9.23
2018-07-31T07:20:01.372Z,6.65
2018-07-31T07:22:29.785Z,8.03
2018-07-31T07:24:58.115Z,8.20
2018-07-31T07:27:26.516Z,9.95
2018-07-31T07:29:54.574Z,12.10
2018-07-31T07:32:22.897Z,8.05
2018-07-31T07:34:51.452Z,10.08
2018-07-31T07:37:19.523Z,7.37
2018-07-31T07:39:47.598Z,7.67
2018-07-31T07:42:15.655Z,10.03
2018-07-31T07:44:44.004Z,13.83
2018-07-31T07:47:12.619Z,9.75
2018-07-31T07:49:41.780Z,11.85
2018-07-31T07:52:10.118Z,10.78
2018-07-31T07:54:38.194Z,10.30
2018-07-31T07:57:06.899Z,9.30
2018-07-31T07:59:35.575Z,10.82
2018-07-31T08:02:03.930Z,10.48
2018-07-31T08:04:32.304Z,11.08
2018-07-31T08:07:00.644Z,7.78
2018-07-31T08:09:29.020Z,10.85
2018-07-31T08:11:57.401Z,13.10
2018-07-31T08:14:25.753Z,11.55
2018-07-31T08:16:54.104Z,11.12
2018-07-31T08:19:22.443Z,8.58
2018-07-31T08:21:50.780Z,10.98
2018-07-31T08:24:18.863Z,9.20
2018-07-31T08:26:47.175Z,8.90
2018-07-31T08:29:15.548Z,10.68
2018-07-31T08:31:43.896Z,8.98
2018-07-31T08:34:12.336Z,9.35
2018-07-31T08:36:40.652Z,8.80
2018-07-31T08:39:09.968Z,11.25
2018-07-31T08:41:38.292Z,10.63
2018-07-31T08:44:07.130Z,10.03
2018-07-31T08:46:35.451Z,12.58
2018-07-31T08:49:03.824Z,12.90
2018-07-31T08:51:32.149Z,10.28
2018-07-31T08:54:00.258Z,10.60
2018-07-31T08:56:28.579Z,9.40
2018-07-31T08:58:56.940Z,12.28
2018-07-31T09:01:25.279Z,10.98
2018-07-31T09:03:53.892Z,11.20
2018-07-31T09:06:22.268Z,12.28
2018-07-31T09:08:50.655Z,12.95
2018-07-31T09:11:18.959Z,10.80
2018-07-31T09:13:47.287Z,11.78
2018-07-31T09:16:15.623Z,10.10
2018-07-31T09:18:43.935Z,11.20
2018-07-31T09:21:12.315Z,9.75
2018-07-31T09:23:40.640Z,9.08
2018-07-31T09:26:09.013Z,11.53
2018-07-31T09:28:37.339Z,8.88
2018-07-31T09:31:11.184Z,10.48
2018-07-31T09:33:39.507Z,8.68
2018-07-31T09:36:07.879Z,10.10
2018-07-31T09:38:36.220Z,8.95
2018-07-31T09:41:04.589Z,8.70
2018-07-31T09:43:32.919Z,7.65
2018-07-31T09:46:01.267Z,10.13
2018-07-31T09:48:29.644Z,8.88
2018-07-31T09:50:57.976Z,9.63
2018-07-31T09:53:26.304Z,10.15
2018-07-31T09:55:54.652Z,8.30
2018-07-31T09:58:22.996Z,8.83
2018-07-31T10:00:56.760Z,8.78
2018-07-31T10:03:25.100Z,8.83
2018-07-31T10:05:53.190Z,12.30
2018-07-31T10:08:22.459Z,8.18
2018-07-31T10:10:52.299Z,9.05
2018-07-31T10:13:20.692Z,7.40
2018-07-31T10:15:49.256Z,6.67
2018-07-31T10:18:17.693Z,5.80
2018-07-31T10:20:46.103Z,6.10
2018-07-31T10:23:14.430Z,11.75
2018-07-31T10:25:42.777Z,18.07
2018-07-31T10:28:11.100Z,17.70
2018-07-31T10:30:39.454Z,22.13
2018-07-31T10:33:07.796Z,23.98
2018-07-31T10:35:36.199Z,7.35
2018-07-31T10:38:04.588Z,8.03
2018-07-31T10:40:33.171Z,12.95
2018-07-31T10:43:01.490Z,24.27
2018-07-31T10:45:29.856Z,14.13
2018-07-31T10:47:58.197Z,9.03
2018-07-31T10:50:26.524Z,10.45
2018-07-31T10:52:54.870Z,25.70
2018-07-31T10:55:23.188Z,17.70
2018-07-31T10:57:51.535Z,7.55
2018-07-31T11:00:19.881Z,7.45
2018-07-31T11:02:47.993Z,15.28
2018-07-31T11:05:16.314Z,9.68
2018-07-31T11:07:44.656Z,5.90
2018-07-31T11:10:12.984Z,4.50
2018-07-31T11:12:41.059Z,4.42
2018-07-31T11:15:09.110Z,4.95
2018-07-31T11:17:37.451Z,5.72
2018-07-31T11:20:05.976Z,6.70
2018-07-31T11:22:34.357Z,4.28
2018-07-31T11:25:02.671Z,7.00
2018-07-31T11:27:31.043Z,4.17
2018-07-31T11:29:59.347Z,10.70
2018-07-31T11:32:27.688Z,8.23
2018-07-31T11:34:55.743Z,7.62
2018-07-31T11:37:24.124Z,3.50
2018-07-31T11:39:52.444Z,7.12
2018-07-31T11:42:20.812Z,5.97
2018-07-31T11:44:49.129Z,5.12
2018-07-31T11:47:17.467Z,5.83
2018-07-31T11:49:45.844Z,3.98
2018-07-31T11:52:14.184Z,4.42
2018-07-31T11:54:42.515Z,3.98
2018-07-31T11:57:10.861Z,5.75
2018-07-31T11:59:38.918Z,4.55
2018-07-31T12:02:07.560Z,3.35
2018-07-31T12:04:35.887Z,4.60
2018-07-31T12:07:04.215Z,2.98
2018-07-31T12:09:32.552Z,4.37
2018-07-31T12:12:00.628Z,4.80
2018-07-31T12:14:28.989Z,3.80
2018-07-31T12:16:57.331Z,4.70
2018-07-31T12:19:25.701Z,3.37
2018-07-31T12:21:54.081Z,5.92
2018-07-31T12:24:22.431Z,3.17
2018-07-31T12:26:50.516Z,11.50
2018-07-31T12:29:18.864Z,6.78
2018-07-31T12:31:47.187Z,4.87
2018-07-31T12:34:15.543Z,4.95
2018-07-31T12:36:45.834Z,5.30
2018-07-31T12:39:14.304Z,5.40
2018-07-31T12:41:42.676Z,4.83
2018-07-31T12:44:11.048Z,5.47
2018-07-31T12:46:39.367Z,4.58
2018-07-31T12:49:07.751Z,5.20
2018-07-31T12:51:36.340Z,3.83
2018-07-31T12:54:04.743Z,6.08
2018-07-31T12:56:33.099Z,5.78
2018-07-31T12:59:01.455Z,4.62
2018-07-31T13:01:29.787Z,4.40
2018-07-31T13:03:58.137Z,5.12
2018-07-31T13:06:26.463Z,3.00
2018-07-31T13:08:54.816Z,6.62
2018-07-31T13:11:23.152Z,8.18
2018-07-31T13:13:51.508Z,4.95
2018-07-31T13:16:19.831Z,2.92
2018-07-31T13:18:47.929Z,2.83
2018-07-31T13:21:16.276Z,2.72
2018-07-31T13:23:44.619Z,4.12
2018-07-31T13:26:12.923Z,4.85
2018-07-31T13:28:41.282Z,2.95
2018-07-31T13:31:09.602Z,2.72
2018-07-31T13:33:37.706Z,2.90
2018-07-31T13:36:06.071Z,4.53
2018-07-31T13:38:34.384Z,3.08
2018-07-31T13:41:02.726Z,3.20
2018-07-31T13:43:31.111Z,2.95
2018-07-31T13:45:59.420Z,4.80
2018-07-31T13:48:27.788Z,5.80
2018-07-31T13:50:56.128Z,5.25
2018-07-31T13:53:24.448Z,5.03
2018-07-31T13:55:52.798Z,3.08
2018-07-31T13:58:21.130Z,4.85
2018-07-31T14:00:49.491Z,3.92
2018-07-31T14:03:17.815Z,5.08
2018-07-31T14:05:46.155Z,3.55
2018-07-31T14:08:14.463Z,4.42
2018-07-31T14:10:42.816Z,6.30
2018-07-31T14:13:11.132Z,2.87
2018-07-31T14:15:39.216Z,2.80
2018-07-31T14:18:07.259Z,5.58
2018-07-31T14:20:35.636Z,4.12
2018-07-31T14:23:03.964Z,3.25
2018-07-31T14:25:32.307Z,3.45
2018-07-31T14:28:00.619Z,3.87
2018-07-31T14:30:28.958Z,3.42
2018-07-31T14:32:57.268Z,3.58
2018-07-31T14:35:25.619Z,6.33
2018-07-31T14:37:53.946Z,3.70
2018-07-31T14:40:22.288Z,5.22
2018-07-31T14:42:50.655Z,3.17
2018-07-31T14:45:19.004Z,2.33
2018-07-31T14:47:47.316Z,4.65
2018-07-31T14:50:15.655Z,3.40
2018-07-31T14:52:43.975Z,3.72
2018-07-31T14:55:12.346Z,4.12
2018-07-31T14:57:40.673Z,2.98
2018-07-31T15:00:09.217Z,4.97
2018-07-31T15:02:37.539Z,2.00
2018-07-31T15:05:06.199Z,5.08
2018-07-31T15:07:34.511Z,5.45
2018-07-31T15:10:02.828Z,2.42
2018-07-31T15:12:31.164Z,2.47
2018-07-31T15:14:59.483Z,3.72
2018-07-31T15:17:27.815Z,2.83
2018-07-31T15:19:56.133Z,3.10
2018-07-31T15:22:24.511Z,3.08
2018-07-31T15:24:53.136Z,2.72
2018-07-31T15:27:21.481Z,2.67
2018-07-31T15:29:49.820Z,3.50
2018-07-31T15:32:18.172Z,4.25
2018-07-31T15:34:46.501Z,4.20
2018-07-31T15:37:14.856Z,3.00
2018-07-31T15:39:43.204Z,4.55
2018-07-31T15:42:11.588Z,2.72
2018-07-31T15:44:39.920Z,3.30
2018-07-31T15:47:08.295Z,3.47
2018-07-31T15:49:36.663Z,3.55
2018-07-31T15:52:05.029Z,3.98
2018-07-31T15:54:33.367Z,3.77
2018-07-31T15:57:01.733Z,3.22
2018-07-31T15:59:30.323Z,6.67
2018-07-31T16:01:58.662Z,2.90
2018-07-31T16:04:26.987Z,3.30
2018-07-31T16:06:55.355Z,4.67
2018-07-31T16:09:23.720Z,5.37
2018-07-31T16:11:52.088Z,4.05
2018-07-31T16:14:20.423Z,4.53
2018-07-31T16:16:48.807Z,4.60
2018-07-31T16:19:17.137Z,4.85
2018-07-31T16:21:45.517Z,6.62
2018-07-31T16:24:13.883Z,2.40
2018-07-31T16:26:42.229Z,3.72
2018-07-31T16:29:10.556Z,4.70
2018-07-31T16:31:38.910Z,3.62
2018-07-31T16:34:07.273Z,6.60
2018-07-31T16:36:35.595Z,4.05
2018-07-31T16:39:05.723Z,3.40
2018-07-31T16:41:34.077Z,3.40
2018-07-31T16:44:02.417Z,4.03
2018-07-31T16:46:31.001Z,5.00
2018-07-31T16:48:59.347Z,2.83
2018-07-31T16:51:27.771Z,4.30
2018-07-31T16:53:56.053Z,4.42
2018-07-31T16:56:24.380Z,3.45
2018-07-31T16:58:52.691Z,5.40
2018-07-31T17:01:21.015Z,3.90
2018-07-31T17:03:49.374Z,4.05
2018-07-31T17:06:17.720Z,3.37
2018-07-31T17:08:45.806Z,9.70
2018-07-31T17:11:14.140Z,3.60
2018-07-31T17:13:42.508Z,5.08
2018-07-31T17:16:10.859Z,5.70
2018-07-31T17:18:39.195Z,7.60
2018-07-31T17:21:07.287Z,4.95
2018-07-31T17:23:35.635Z,8.38
2018-07-31T17:26:03.985Z,5.00
2018-07-31T17:28:32.351Z,3.17
2018-07-31T17:31:00.682Z,10.88
2018-07-31T17:33:29.032Z,4.28
2018-07-31T17:35:57.361Z,5.50
2018-07-31T17:38:25.716Z,7.53
2018-07-31T17:40:54.060Z,5.12
2018-07-31T17:43:22.420Z,5.20
2018-07-31T17:45:50.775Z,3.12
2018-07-31T17:48:19.128Z,4.17
2018-07-31T17:50:47.464Z,4.67
2018-07-31T17:53:15.840Z,4.47
2018-07-31T17:55:44.187Z,4.80
2018-07-31T17:58:12.435Z,4.45
2018-07-31T18:00:40.527Z,8.70
2018-07-31T18:03:08.662Z,7.85
2018-07-31T18:05:37.014Z,4.97
2018-07-31T18:08:05.420Z,3.27
2018-07-31T18:10:34.131Z,3.40
2018-07-31T18:13:02.507Z,5.55
2018-07-31T18:15:30.969Z,7.97
2018-07-31T18:17:59.348Z,6.60
2018-07-31T18:20:27.704Z,6.40
2018-07-31T18:22:56.052Z,9.53
2018-07-31T18:25:24.135Z,3.67
2018-07-31T18:27:52.523Z,3.45
2018-07-31T18:30:20.879Z,5.08
2018-07-31T18:32:49.219Z,5.90
2018-07-31T18:35:17.595Z,7.55
2018-07-31T18:37:45.934Z,4.00
2018-07-31T18:40:14.256Z,3.90
2018-07-31T18:42:42.632Z,4.47
2018-07-31T18:45:10.959Z,4.70
2018-07-31T18:47:39.014Z,5.70
2018-07-31T18:50:07.423Z,5.62
2018-07-31T18:52:35.758Z,6.17
2018-07-31T18:55:04.105Z,6.12
2018-07-31T18:57:32.452Z,4.22
2018-07-31T19:00:00.827Z,7.47
2018-07-31T19:02:28.900Z,4.47
2018-07-31T19:04:56.970Z,7.75
2018-07-31T19:07:25.300Z,7.42
2018-07-31T19:09:53.635Z,5.87
2018-07-31T19:12:21.964Z,5.78
2018-07-31T19:14:50.042Z,7.37
2018-07-31T19:17:18.359Z,5.22
2018-07-31T19:19:46.737Z,4.60
2018-07-31T19:22:14.860Z,8.28
2018-07-31T19:24:43.203Z,4.55
2018-07-31T19:27:12.380Z,5.80
2018-07-31T19:29:40.467Z,5.72
2018-07-31T19:32:08.775Z,3.72
2018-07-31T19:34:37.127Z,6.03
2018-07-31T19:37:05.520Z,8.43
2018-07-31T19:39:33.864Z,3.87
2018-07-31T19:42:02.250Z,4.10
2018-07-31T19:44:30.616Z,3.50
2018-07-31T19:46:58.937Z,3.83
2018-07-31T19:49:27.369Z,5.22
2018-07-31T19:51:55.361Z,5.92
2018-07-31T19:54:23.723Z,4.75
2018-07-31T19:56:52.089Z,3.40
2018-07-31T19:59:20.431Z,6.00
2018-07-31T20:01:48.761Z,4.70
2018-07-31T20:04:17.115Z,5.08
2018-07-31T20:06:45.449Z,5.90
2018-07-31T20:09:19.188Z,6.08
2018-07-31T20:11:47.512Z,5.58
2018-07-31T20:14:15.852Z,4.55
2018-07-31T20:16:44.179Z,4.60
2018-07-31T20:19:12.259Z,3.75
2018-07-31T20:21:40.610Z,4.67
2018-07-31T20:24:08.967Z,4.53
2018-07-31T20:26:37.292Z,4.30
2018-07-31T20:29:05.676Z,4.58
2018-07-31T20:31:34.029Z,5.67
2018-07-31T20:34:02.465Z,4.20
2018-07-31T20:36:30.848Z,4.87
2018-07-31T20:38:59.232Z,6.22
2018-07-31T20:41:27.662Z,6.80
2018-07-31T20:43:55.948Z,4.75
2018-07-31T20:46:24.052Z,4.83
2018-07-31T20:48:52.383Z,4.60
2018-07-31T20:51:20.730Z,3.30
2018-07-31T20:53:49.094Z,3.58
2018-07-31T20:56:17.467Z,3.37
2018-07-31T20:58:45.801Z,3.47
2018-07-31T21:01:14.717Z,5.05
2018-07-31T21:03:43.054Z,4.12
2018-07-31T21:06:11.435Z,4.00
2018-07-31T21:08:39.901Z,4.55
2018-07-31T21:11:08.544Z,3.00
2018-07-31T21:13:36.950Z,3.47
2018-07-31T21:16:05.477Z,2.75
2018-07-31T21:18:34.046Z,2.92
2018-07-31T21:21:02.386Z,2.45
2018-07-31T21:23:30.715Z,2.77
2018-07-31T21:25:59.208Z,5.45
2018-07-31T21:28:28.006Z,2.72
2018-07-31T21:30:56.481Z,2.25
2018-07-31T21:33:24.974Z,2.98
2018-07-31T21:35:53.412Z,3.95
2018-07-31T21:38:21.789Z,4.03
2018-07-31T21:40:50.530Z,2.37
2018-07-31T21:43:19.033Z,2.72
2018-07-31T21:45:47.501Z,2.67
2018-07-31T21:48:15.906Z,2.42
2018-07-31T21:50:44.320Z,4.37
2018-07-31T21:53:12.708Z,5.30
2018-07-31T21:55:41.124Z,3.47
2018-07-31T21:58:09.493Z,2.50
2018-07-31T22:00:43.201Z,3.10
2018-07-31T22:03:11.580Z,4.22
2018-07-31T22:05:40.056Z,2.15
2018-07-31T22:08:08.108Z,4.28
2018-07-31T22:10:36.464Z,5.17
2018-07-31T22:13:04.769Z,3.52
2018-07-31T22:15:33.107Z,2.83
2018-07-31T22:18:01.444Z,2.60
2018-07-31T22:20:29.555Z,2.52
2018-07-31T22:22:57.884Z,3.00
2018-07-31T22:25:26.228Z,4.78
2018-07-31T22:27:54.544Z,3.72
2018-07-31T22:30:22.905Z,5.25
2018-07-31T22:32:51.220Z,4.62
2018-07-31T22:35:19.547Z,5.80
2018-07-31T22:37:47.884Z,4.60
2018-07-31T22:40:16.227Z,6.33
2018-07-31T22:42:44.579Z,4.72
2018-07-31T22:45:12.895Z,4.17
2018-07-31T22:47:41.021Z,4.87
2018-07-31T22:50:09.336Z,6.10
2018-07-31T22:52:37.676Z,4.78
2018-07-31T22:55:06.068Z,6.70
2018-07-31T22:57:34.496Z,3.98
2018-07-31T23:00:02.555Z,5.37
2018-07-31T23:02:30.892Z,4.87
2018-07-31T23:04:59.208Z,4.37
2018-07-31T23:07:27.660Z,5.40
2018-07-31T23:09:57.109Z,5.92
2018-07-31T23:12:26.120Z,7.40
2018-07-31T23:14:54.458Z,7.42
2018-07-31T23:17:22.815Z,10.23
2018-07-31T23:19:51.131Z,7.93
2018-07-31T23:22:24.735Z,7.30
2018-07-31T23:24:53.279Z,4.87
2018-07-31T23:27:21.644Z,8.13
2018-07-31T23:29:50.992Z,8.70
2018-07-31T23:32:19.428Z,8.73
2018-07-31T23:34:47.856Z,7.33
2018-07-31T23:37:16.261Z,5.10
2018-07-31T23:39:44.653Z,6.40
2018-07-31T23:42:13.063Z,4.90
2018-07-31T23:44:41.440Z,4.37
2018-07-31T23:47:09.906Z,4.67
2018-07-31T23:49:38.276Z,4.80
2018-07-31T23:52:06.777Z,3.63
2018-07-31T23:54:35.169Z,5.30
2018-07-31T23:57:03.596Z,3.97
2018-07-31T23:59:32.006Z,5.13
